Time;durP1;ratioP1;P1;durP2;ratioP2;P2;SDS_P1;SDS_P2;PMS_P1;PMS_P2;Temp;Humidity;BMP_temperature;BMP_pressure;BME280_temperature;BME280_humidity;BME280_pressure;Samples;Min_cycle;Max_cycle;Signal;HPM_P1;HPM_P2
2023/10/30 00:02:21;;;;;;;9.05;1.85;;;12.80;99.90;;;13.12;71.62;98969.47;5023970;28;20125;-82
2023/10/30 00:04:50;;;;;;;11.55;2.00;;;12.80;99.90;;;13.11;71.41;98974.03;5023519;28;20050;-82
2023/10/30 00:07:18;;;;;;;11.57;1.70;;;12.80;99.90;;;13.07;71.23;98977.50;5022578;28;20038;-82
2023/10/30 00:09:52;;;;;;;8.45;2.25;;;12.80;99.90;;;13.01;70.84;98963.31;5026574;28;20054;-82
2023/10/30 00:15:03;;;;;;;9.95;1.92;;;12.80;99.90;;;13.02;71.96;98969.47;5019833;28;20045;-81
2023/10/30 00:17:34;;;;;;;8.75;1.90;;;12.80;99.90;;;13.03;72.00;98977.25;5027317;28;20056;-82
2023/10/30 00:20:02;;;;;;;8.07;1.80;;;12.70;99.90;;;13.05;72.14;98971.63;5026263;28;20050;-82
2023/10/30 00:22:30;;;;;;;11.45;2.00;;;12.80;99.90;;;13.04;72.00;98986.06;5042983;28;20045;-82
2023/10/30 00:25:01;;;;;;;7.13;1.70;;;12.70;99.90;;;13.04;72.52;98972.69;5027374;28;20050;-82
2023/10/30 00:27:34;;;;;;;13.30;2.05;;;12.70;99.90;;;13.04;72.41;98986.06;5027041;28;20129;-82
2023/10/30 00:30:05;;;;;;;14.60;2.00;;;12.70;99.90;;;13.02;72.26;98980.97;5028050;28;20073;-82
2023/10/30 00:32:35;;;;;;;8.93;1.90;;;12.70;99.90;;;13.01;72.25;98979.38;5024863;28;20049;-82
2023/10/30 00:35:03;;;;;;;11.25;2.10;;;12.70;99.90;;;12.94;71.84;98984.19;5026037;28;20046;-82
2023/10/30 00:37:31;;;;;;;11.38;1.85;;;12.60;99.90;;;12.95;72.36;98985.78;5027420;28;20068;-82
2023/10/30 00:40:01;;;;;;;7.30;1.75;;;12.70;99.90;;;13.00;72.61;99001.84;5025654;28;20046;-82
2023/10/30 00:42:29;;;;;;;8.63;1.60;;;12.70;99.90;;;13.00;72.66;99001.84;5026168;28;20080;-82
2023/10/30 00:44:57;;;;;;;11.68;1.90;;;12.70;99.90;;;12.93;71.41;99009.31;5025259;28;20100;-82
2023/10/30 00:47:26;;;;;;;10.88;1.95;;;12.70;99.90;;;12.96;71.56;99008.78;5026116;28;20449;-82
2023/10/30 00:49:57;;;;;;;10.63;2.50;;;12.70;99.90;;;13.01;72.20;99016.84;5011570;28;20530;-82
2023/10/30 00:52:25;;;;;;;10.35;2.05;;;12.70;99.90;;;13.03;72.10;99017.41;5022505;28;20050;-82
2023/10/30 00:54:55;;;;;;;10.43;1.92;;;12.80;99.90;;;13.02;71.85;99017.63;5005613;28;20137;-82
2023/10/30 00:57:25;;;;;;;9.48;1.90;;;12.80;99.90;;;13.03;71.97;99014.72;5021693;28;20050;-82
2023/10/30 00:59:54;;;;;;;12.43;2.35;;;12.80;99.90;;;13.03;71.87;99019.22;5021934;28;20114;-82
2023/10/30 01:02:23;;;;;;;10.32;2.13;;;12.80;99.90;;;13.00;71.12;99017.09;4988676;28;20502;-82
2023/10/30 01:04:57;;;;;;;10.25;1.80;;;12.60;99.90;;;12.99;71.96;99015.50;5005789;28;20038;-82
2023/10/30 01:07:27;;;;;;;11.85;2.42;;;12.80;99.90;;;12.98;71.57;99025.41;5039142;28;20046;-82
2023/10/30 01:09:57;;;;;;;9.67;1.87;;;12.80;99.90;;;12.96;71.68;99022.16;5040931;28;20138;-82
2023/10/30 01:12:25;;;;;;;7.28;2.15;;;12.80;99.90;;;13.00;72.43;99031.28;5026968;28;20026;-82
2023/10/30 01:14:53;;;;;;;12.10;2.72;;;12.80;99.90;;;13.00;72.29;99033.16;5040907;28;20053;-82
2023/10/30 01:17:27;;;;;;;6.57;1.63;;;12.80;99.90;;;12.98;72.46;99030.75;5058379;28;20046;-82
2023/10/30 01:20:03;;;;;;;12.60;2.22;;;12.80;99.90;;;12.96;72.34;99032.88;4992784;28;20072;-82
2023/10/30 01:22:32;;;;;;;12.90;2.78;;;12.80;99.90;;;12.98;72.87;99027.25;5025128;28;20042;-82
2023/10/30 01:25:01;;;;;;;8.73;2.13;;;12.80;99.90;;;12.93;72.68;99019.19;5038089;28;20050;-83
2023/10/30 01:27:32;;;;;;;11.75;2.10;;;12.70;99.90;;;12.86;72.65;99027.47;5007007;28;20073;-83
2023/10/30 01:30:01;;;;;;;14.38;2.30;;;12.70;99.90;;;12.86;72.96;99028.28;5021566;28;20058;-83
2023/10/30 01:32:31;;;;;;;11.50;2.17;;;12.70;99.90;;;12.91;73.59;99026.69;5021861;28;20116;-83
2023/10/30 01:35:02;;;;;;;15.52;2.28;;;12.70;99.90;;;12.82;73.02;99026.38;5005127;28;20042;-83
2023/10/30 01:37:30;;;;;;;10.77;1.85;;;12.70;99.90;;;12.86;73.37;99032.84;5022303;28;20510;-82
2023/10/30 01:40:01;;;;;;;9.32;2.05;;;12.70;99.90;;;12.91;73.66;99029.38;5011017;28;20413;-82
2023/10/30 01:42:34;;;;;;;10.90;2.42;;;12.70;99.90;;;12.86;73.66;99028.28;5004208;28;20077;-82
2023/10/30 01:45:11;;;;;;;13.13;2.08;;;12.60;99.90;;;12.91;73.37;99021.34;5003143;28;20117;-82
2023/10/30 01:47:46;;;;;;;12.20;1.85;;;12.70;99.90;;;12.92;73.54;99023.75;5003250;28;20053;-82
2023/10/30 01:50:16;;;;;;;9.93;2.20;;;12.70;99.90;;;12.93;73.54;99033.38;4986863;28;20080;-82
2023/10/30 01:52:46;;;;;;;17.23;2.08;;;12.70;99.90;;;12.90;73.50;99033.94;4986968;28;20042;-82
2023/10/30 01:55:17;;;;;;;11.70;2.30;;;12.70;99.90;;;12.87;73.93;99024.53;4986982;28;20053;-82
2023/10/30 01:57:46;;;;;;;14.35;2.50;;;12.70;99.90;;;12.94;73.49;99034.22;5002275;28;20050;-82
2023/10/30 02:00:16;;;;;;;9.45;2.17;;;12.70;99.90;;;12.95;73.82;99028.59;5018784;28;20062;-82
2023/10/30 02:02:45;;;;;;;12.93;2.65;;;12.70;99.90;;;12.99;73.60;99034.25;4986337;28;20097;-82
2023/10/30 02:05:17;;;;;;;13.30;2.33;;;12.80;99.90;;;12.95;73.35;99043.84;5002842;28;20074;-82
2023/10/30 02:07:51;;;;;;;12.88;2.35;;;12.70;99.90;;;12.94;73.21;99036.91;5003096;28;20054;-82
2023/10/30 02:10:19;;;;;;;12.95;2.00;;;12.70;99.90;;;12.90;73.95;99036.59;5003895;28;20069;-82
2023/10/30 02:12:52;;;;;;;11.63;1.73;;;12.70;99.90;;;12.92;73.81;99029.09;5005142;28;20089;-82
2023/10/30 02:15:20;;;;;;;10.48;1.85;;;12.70;99.90;;;12.94;73.92;99031.53;5003864;28;20054;-82
2023/10/30 02:17:50;;;;;;;10.30;2.00;;;12.50;99.90;;;12.94;73.72;99026.19;5005290;28;20050;-82
2023/10/30 02:20:22;;;;;;;11.00;2.25;;;12.70;99.90;;;12.93;73.88;99027.22;5005094;28;20077;-82
2023/10/30 02:22:58;;;;;;;9.65;1.83;;;12.70;99.90;;;12.91;73.69;99032.84;5003565;28;20046;-82
2023/10/30 02:25:33;;;;;;;9.50;1.88;;;12.70;99.90;;;12.88;73.73;99034.19;5003177;28;20081;-83
2023/10/30 02:28:01;;;;;;;12.35;2.60;;;12.70;99.90;;;12.92;74.02;99034.47;4986937;28;20054;-82
2023/10/30 02:30:33;;;;;;;10.85;2.10;;;12.70;99.90;;;12.92;73.87;99033.66;5043346;28;20050;-82
2023/10/30 02:33:02;;;;;;;7.50;1.75;;;12.70;99.90;;;12.93;74.13;99035.25;5022477;28;20049;-82
2023/10/30 02:35:33;;;;;;;12.35;2.08;;;12.70;99.90;;;12.94;74.13;99043.03;5039230;28;20045;-82
2023/10/30 02:38:01;;;;;;;12.57;1.80;;;12.70;99.90;;;12.87;73.76;99045.16;5022721;28;20069;-82
2023/10/30 02:40:32;;;;;;;9.57;2.22;;;12.70;99.90;;;12.88;74.26;99039.56;5023635;28;20056;-82
2023/10/30 02:43:03;;;;;;;11.38;1.85;;;12.70;99.90;;;12.92;73.82;99039.81;5039267;28;20097;-82
2023/10/30 02:45:32;;;;;;;14.68;2.08;;;12.60;99.90;;;12.93;73.83;99038.75;5024039;28;20129;-82
2023/10/30 02:47:59;;;;;;;6.10;1.70;;;12.60;99.90;;;12.91;74.11;99043.56;5022736;28;20057;-82
2023/10/30 02:50:33;;;;;;;11.63;2.15;;;12.60;99.90;;;12.92;74.11;99045.16;5019822;28;20460;-82
2023/10/30 02:53:03;;;;;;;11.80;2.08;;;12.60;99.90;;;12.91;73.50;99054.25;5004392;28;20130;-82
2023/10/30 02:55:33;;;;;;;8.77;2.00;;;12.70;99.90;;;12.88;73.69;99044.91;5018744;28;20093;-83
2023/10/30 02:58:02;;;;;;;;;;;12.70;99.90;;;12.84;73.78;99032.31;5005115;28;20050;-83
2023/10/30 03:00:30;;;;;;;9.73;1.70;;;12.60;99.90;;;12.85;73.88;99041.94;5002915;28;19929;-82
2023/10/30 03:03:00;;;;;;;12.77;2.33;;;12.70;99.90;;;12.90;74.42;99044.63;5003948;28;20109;-82
2023/10/30 03:05:33;;;;;;;8.52;1.77;;;12.70;99.90;;;12.92;74.38;99039.00;5018721;28;20042;-82
2023/10/30 03:08:04;;;;;;;14.55;2.38;;;12.70;99.90;;;12.94;74.31;99039.56;5007814;28;20072;-81
2023/10/30 03:10:35;;;;;;;8.60;2.35;;;12.70;99.90;;;12.95;74.62;99043.84;5022304;28;20060;-82
2023/10/30 03:13:03;;;;;;;9.65;2.15;;;12.70;99.90;;;12.88;73.22;99039.56;5023165;28;20048;-82
2023/10/30 03:15:32;;;;;;;14.90;2.10;;;12.70;99.90;;;12.87;73.63;99035.25;5022387;28;20488;-82
2023/10/30 03:18:03;;;;;;;14.75;2.47;;;12.70;99.90;;;12.90;73.71;99031.25;5024389;28;20088;-82
2023/10/30 03:20:35;;;;;;;9.38;2.47;;;12.70;99.90;;;12.89;74.27;99030.44;5022865;28;20077;-82
2023/10/30 03:23:04;;;;;;;8.65;1.77;;;12.70;99.90;;;12.89;74.20;99029.66;5024455;28;20058;-82
2023/10/30 03:25:36;;;;;;;9.98;2.00;;;12.70;99.90;;;12.92;74.28;99033.66;5018580;28;20115;-82
2023/10/30 03:28:04;;;;;;;11.88;2.65;;;12.70;99.90;;;12.92;74.00;99028.31;5019058;28;20051;-82
2023/10/30 03:30:39;;;;;;;11.25;2.00;;;12.60;99.90;;;12.92;73.93;99041.69;5002058;28;20046;-82
2023/10/30 03:33:10;;;;;;;9.18;1.88;;;12.60;99.90;;;12.91;73.94;99040.09;5003652;28;20049;-82
2023/10/30 03:35:41;;;;;;;9.90;1.90;;;12.60;99.90;;;12.92;74.12;99039.00;5005720;28;20046;-82
2023/10/30 03:38:09;;;;;;;11.30;2.25;;;12.60;99.90;;;12.93;73.96;99036.06;5022933;28;20109;-82
2023/10/30 03:40:38;;;;;;;9.98;2.53;;;12.70;99.90;;;12.96;74.14;99046.25;5014650;28;20065;-82
2023/10/30 03:43:12;;;;;;;9.93;2.00;;;12.70;99.90;;;12.96;74.15;99040.91;5005450;28;20054;-82
2023/10/30 03:45:47;;;;;;;11.95;2.13;;;12.70;99.90;;;12.97;74.08;99042.50;5007304;28;20065;-82
2023/10/30 03:48:16;;;;;;;10.00;2.30;;;12.70;99.90;;;12.99;74.25;99047.63;5028057;28;20041;-82
2023/10/30 03:50:53;;;;;;;9.55;1.83;;;12.70;99.90;;;12.98;74.16;99046.81;5026369;28;20038;-82
2023/10/30 03:53:21;;;;;;;10.98;1.83;;;12.70;99.90;;;12.97;74.15;99049.72;5041849;28;20041;-82
2023/10/30 03:55:53;;;;;;;;;;;12.60;99.90;;;12.94;74.14;99044.91;5028195;28;20046;-82
2023/10/30 03:58:25;;;;;;;11.60;2.00;;;12.60;99.90;;;12.94;74.23;99055.63;5059645;28;20341;-82
2023/10/30 04:00:55;;;;;;;9.63;1.60;;;12.60;99.90;;;12.94;74.31;99047.59;5026960;28;20053;-82
2023/10/30 04:03:23;;;;;;;10.07;2.55;;;12.70;99.90;;;12.93;74.31;99048.63;5037989;28;20065;-82
2023/10/30 04:05:51;;;;;;;10.52;2.30;;;12.60;99.90;;;12.93;74.39;99052.13;5007628;28;20066;-82
2023/10/30 04:08:19;;;;;;;10.23;2.03;;;12.60;99.90;;;12.94;74.50;99053.75;5007446;28;20050;-83
2023/10/30 04:10:50;;;;;;;11.70;2.00;;;12.60;99.90;;;12.97;74.43;99063.91;5006215;28;20152;-83
2023/10/30 04:13:20;;;;;;;6.55;1.75;;;12.70;99.90;;;12.95;74.42;99060.72;5005609;28;20054;-83
2023/10/30 04:15:50;;;;;;;12.07;2.30;;;12.60;99.90;;;12.96;74.63;99062.31;5021624;28;20053;-82
2023/10/30 04:18:18;;;;;;;9.55;1.80;;;12.60;99.90;;;12.97;74.57;99066.59;5004779;28;20053;-82
2023/10/30 04:20:50;;;;;;;10.02;1.95;;;12.60;99.90;;;12.94;74.46;99069.81;4988861;28;20057;-82
2023/10/30 04:23:18;;;;;;;10.52;2.20;;;12.60;99.90;;;12.93;74.11;99062.03;5003921;28;20073;-82
2023/10/30 04:25:47;;;;;;;11.63;2.35;;;12.60;99.90;;;12.94;74.38;99069.00;4988665;28;20462;-82
2023/10/30 04:28:18;;;;;;;10.25;2.58;;;12.60;99.90;;;12.91;73.83;99056.94;5031365;28;20501;-82
2023/10/30 04:30:47;;;;;;;6.65;1.77;;;12.60;99.90;;;12.90;74.13;99052.66;5019977;28;20045;-82
2023/10/30 04:33:21;;;;;;;12.50;2.13;;;12.60;99.90;;;12.92;74.07;99049.72;5022763;28;20050;-83
2023/10/30 04:35:49;;;;;;;8.88;2.10;;;12.60;99.90;;;12.88;73.89;99062.81;5036540;28;20050;-82
2023/10/30 04:38:17;;;;;;;9.40;2.35;;;12.60;99.90;;;12.88;74.27;99060.97;5005556;28;20050;-83
2023/10/30 04:40:46;;;;;;;12.57;2.45;;;12.70;99.90;;;12.86;73.47;99060.41;5021052;28;20056;-84
2023/10/30 04:43:23;;;;;;;9.05;2.40;;;12.60;99.90;;;12.88;74.47;99055.59;5000563;28;20462;-86
2023/10/30 04:45:52;;;;;;;9.25;2.17;;;12.60;99.90;;;12.93;74.50;99057.47;5011702;28;20485;-86
2023/10/30 04:48:30;;;;;;;12.85;2.20;;;12.50;99.90;;;12.89;74.43;99051.06;5031334;28;20054;-85
2023/10/30 04:51:00;;;;;;;15.85;2.38;;;12.70;99.90;;;12.90;74.63;99052.66;5036553;28;20101;-85
2023/10/30 04:53:29;;;;;;;12.77;2.38;;;12.60;99.90;;;12.90;74.85;99047.31;5021106;28;20096;-85
2023/10/30 04:55:59;;;;;;;11.45;2.10;;;12.60;99.90;;;12.92;74.89;99049.72;5023692;28;20570;-84
2023/10/30 04:58:36;;;;;;;11.23;2.60;;;12.60;99.90;;;12.88;74.71;99052.94;5036126;28;20061;-84
2023/10/30 05:01:13;;;;;;;13.13;2.47;;;12.60;99.90;;;12.86;73.99;99049.69;5014520;28;20042;-83
2023/10/30 05:03:48;;;;;;;10.27;2.38;;;12.60;99.90;;;12.87;74.65;99051.28;5015887;28;20046;-84
2023/10/30 05:06:16;;;;;;;10.50;2.17;;;12.60;99.90;;;12.85;74.52;99053.44;5014596;28;20108;-83
2023/10/30 05:08:48;;;;;;;9.13;1.70;;;12.60;99.90;;;12.85;74.64;99066.00;4999992;28;20050;-84
2023/10/30 05:11:16;;;;;;;15.40;1.98;;;12.50;99.90;;;12.84;74.87;99070.56;4999533;28;20050;-84
2023/10/30 05:13:44;;;;;;;12.48;2.75;;;12.50;99.90;;;12.83;74.75;99074.31;4982606;28;20109;-84
2023/10/30 05:16:13;;;;;;;7.30;1.95;;;12.50;99.90;;;12.86;74.64;99071.09;4997903;28;20129;-84
2023/10/30 05:18:41;;;;;;;6.72;1.85;;;12.60;99.90;;;12.85;74.48;99066.81;4999320;28;20101;-83
2023/10/30 05:21:11;;;;;;;11.27;1.92;;;12.50;99.90;;;12.84;74.79;99065.22;5007194;28;20049;-83
2023/10/30 05:23:38;;;;;;;8.75;2.17;;;12.50;99.90;;;12.82;74.87;99056.63;5022232;28;20116;-82
2023/10/30 05:26:09;;;;;;;13.63;2.38;;;12.50;99.90;;;12.83;74.49;99057.44;5038942;28;20044;-82
2023/10/30 05:28:37;;;;;;;8.95;2.17;;;12.50;99.90;;;12.83;74.64;99060.94;5023729;28;20053;-82
2023/10/30 05:31:08;;;;;;;10.57;1.85;;;12.50;99.90;;;12.82;74.52;99061.97;5021811;28;20050;-84
2023/10/30 05:33:36;;;;;;;11.37;2.03;;;12.50;99.90;;;12.82;74.56;99056.63;5034060;28;20057;-81
2023/10/30 05:36:05;;;;;;;9.63;2.13;;;12.50;99.90;;;12.80;74.59;99068.66;5008979;28;20111;-82
2023/10/30 05:38:33;;;;;;;9.20;1.80;;;12.50;99.90;;;12.81;74.55;99063.03;5039299;28;20046;-82
2023/10/30 05:41:00;;;;;;;12.55;2.00;;;12.50;99.90;;;12.79;74.50;99051.81;5046314;28;20073;-83
2023/10/30 05:43:29;;;;;;;7.55;1.90;;;12.40;99.90;;;12.77;74.78;99053.94;5008716;28;20533;-83
2023/10/30 05:45:57;;;;;;;11.43;2.60;;;12.50;99.90;;;12.78;74.57;99058.19;5006027;28;20137;-83
2023/10/30 05:48:25;;;;;;;8.48;1.73;;;12.50;99.90;;;12.76;74.58;99057.66;4990174;28;20054;-83
2023/10/30 05:50:54;;;;;;;9.73;2.00;;;12.40;99.90;;;12.74;74.26;99049.13;4990172;28;20047;-83
2023/10/30 05:53:21;;;;;;;9.98;2.10;;;12.40;99.90;;;12.75;74.37;99055.28;5026116;28;20072;-82
2023/10/30 05:55:49;;;;;;;12.82;2.38;;;12.40;99.90;;;12.77;74.73;99055.81;5034739;28;20054;-82
2023/10/30 05:58:17;;;;;;;11.60;2.10;;;12.50;99.90;;;12.75;74.29;99048.03;5026330;28;20056;-83
2023/10/30 06:00:45;;;;;;;10.65;2.08;;;12.50;99.90;;;12.76;74.82;99048.84;5013389;28;20042;-83
2023/10/30 06:03:13;;;;;;;10.32;1.88;;;12.50;99.90;;;12.73;74.64;99052.03;5021447;28;20046;-82
2023/10/30 06:05:41;;;;;;;13.98;2.45;;;12.50;99.90;;;12.72;74.66;99051.22;5013210;28;20128;-82
2023/10/30 06:08:10;;;;;;;6.25;1.60;;;12.50;99.90;;;12.76;74.57;99051.53;5046282;28;20045;-82
2023/10/30 06:10:38;;;;;;;7.60;1.70;;;12.50;99.90;;;12.72;73.95;99053.91;5046526;28;20045;-82
2023/10/30 06:13:08;;;;;;;14.10;1.95;;;12.50;99.90;;;12.72;74.42;99042.41;5045353;28;20049;-82
2023/10/30 06:15:36;;;;;;;11.00;1.95;;;12.50;99.90;;;12.69;74.36;99053.59;5011732;28;20068;-82
2023/10/30 06:18:04;;;;;;;13.32;2.17;;;12.50;99.90;;;12.69;74.41;99051.75;5013789;28;20077;-82
2023/10/30 06:20:32;;;;;;;12.80;2.10;;;12.50;99.90;;;12.56;74.07;99045.00;5041966;28;20041;-82
2023/10/30 06:23:00;;;;;;;12.02;2.53;;;12.40;99.90;;;12.59;74.47;99046.34;5039226;28;20084;-83
2023/10/30 06:25:29;;;;;;;12.07;2.30;;;12.40;99.90;;;12.61;75.09;99046.91;5017831;28;20037;-83
2023/10/30 06:27:57;;;;;;;10.15;2.03;;;12.40;99.90;;;12.63;74.47;99044.75;5043158;28;20101;-83
2023/10/30 06:30:25;;;;;;;7.18;1.50;;;12.50;99.90;;;12.63;74.79;99047.44;5044040;28;20500;-83
2023/10/30 06:32:53;;;;;;;11.30;1.92;;;12.50;99.90;;;12.62;74.48;99049.31;5024283;28;20116;-83
2023/10/30 06:35:20;;;;;;;12.90;2.08;;;12.50;99.90;;;12.64;74.66;99051.75;5004242;28;20050;-83
2023/10/30 06:37:48;;;;;;;10.05;2.85;;;12.50;99.90;;;12.63;75.05;99053.59;5019499;28;20116;-83
2023/10/30 06:40:15;;;;;;;11.43;2.30;;;12.50;99.90;;;12.67;75.03;99059.22;5019073;28;20564;-83
2023/10/30 06:42:45;;;;;;;15.85;4.32;;;12.50;99.90;;;12.63;74.49;99060.81;5002883;28;20050;-83
2023/10/30 06:45:13;;;;;;;13.27;3.75;;;12.40;99.90;;;12.60;74.91;99064.81;5021081;28;20046;-83
2023/10/30 06:47:43;;;;;;;15.90;3.53;;;12.40;99.90;;;12.63;75.23;99061.59;5020863;28;20050;-83
2023/10/30 06:50:11;;;;;;;12.57;2.90;;;12.50;99.90;;;12.67;75.27;99061.91;5034099;28;20056;-83
2023/10/30 06:52:41;;;;;;;9.23;2.38;;;12.50;99.90;;;12.63;74.80;99053.59;5023842;28;20042;-83
2023/10/30 06:55:10;;;;;;;14.77;2.33;;;12.50;99.90;;;12.61;74.62;99063.75;5057048;28;20085;-83
2023/10/30 06:57:37;;;;;;;14.27;2.65;;;12.40;99.90;;;12.58;74.87;99058.09;5025781;28;20285;-83
2023/10/30 07:00:09;;;;;;;14.70;2.47;;;12.40;99.90;;;12.60;75.38;99061.34;5025852;28;20065;-83
2023/10/30 07:02:37;;;;;;;10.10;1.90;;;12.40;99.90;;;12.66;75.44;99056.81;5025117;28;20046;-82
2023/10/30 07:05:06;;;;;;;10.82;2.65;;;12.50;99.90;;;12.62;75.04;99059.19;5006349;28;20113;-82
2023/10/30 07:07:33;;;;;;;10.43;2.20;;;12.40;99.90;;;12.62;75.18;99061.88;5025945;28;20054;-82
2023/10/30 07:10:02;;;;;;;15.02;2.40;;;12.40;99.90;;;12.64;75.31;99062.44;5023997;28;20046;-83
2023/10/30 07:12:30;;;;;;;9.85;2.10;;;12.40;99.90;;;12.62;75.01;99062.69;5037110;28;20054;-83
2023/10/30 07:14:58;;;;;;;9.60;2.38;;;12.40;99.90;;;12.61;75.37;99068.28;5020755;28;20039;-83
2023/10/30 07:17:27;;;;;;;9.93;2.10;;;12.40;99.90;;;12.63;75.36;99074.97;5005681;28;20046;-83
2023/10/30 07:19:54;;;;;;;8.85;1.95;;;12.40;99.90;;;12.63;75.59;99069.63;5006631;28;20494;-82
2023/10/30 07:22:22;;;;;;;10.18;1.90;;;12.50;99.90;;;12.63;75.65;99080.34;5043974;28;20049;-82
2023/10/30 07:24:50;;;;;;;8.93;2.40;;;12.40;99.90;;;12.64;75.59;99086.50;5045907;28;20080;-82
2023/10/30 08:04:21;;;;;;;13.10;2.80;;;12.80;99.90;;;12.88;76.28;99100.25;5027911;28;20061;-83
2023/10/30 08:06:48;;;;;;;10.77;2.17;;;12.90;99.90;;;12.92;76.06;99097.88;5024327;28;20037;-82
2023/10/30 08:09:16;;;;;;;20.80;2.80;;;13.00;99.90;;;12.97;76.46;99092.56;5022800;28;20112;-82
2023/10/30 08:11:43;;;;;;;11.10;2.42;;;13.00;99.90;;;12.99;76.46;99093.91;5024911;28;20046;-82
2023/10/30 08:14:16;;;;;;;8.75;2.17;;;13.10;99.90;;;13.05;76.33;99092.88;5023776;28;20112;-82
2023/10/30 08:16:45;;;;;;;9.38;2.28;;;13.10;99.90;;;13.15;76.24;99092.91;5024455;28;20046;-82
2023/10/30 08:19:13;;;;;;;15.70;2.35;;;13.20;99.90;;;13.21;76.55;99091.03;5025063;28;20060;-82
2023/10/30 08:21:42;;;;;;;13.80;2.20;;;13.30;99.90;;;13.30;76.53;99088.69;5023704;28;20046;-82
2023/10/30 08:24:12;;;;;;;12.32;2.35;;;13.40;99.90;;;13.36;76.39;99093.00;5024259;28;20497;-82
2023/10/30 08:26:40;;;;;;;11.10;2.15;;;13.50;99.90;;;13.40;75.50;99094.09;5025046;28;20053;-82
2023/10/30 08:29:06;;;;;;;11.48;1.98;;;13.60;99.90;;;13.38;75.55;99097.03;4992913;28;20042;-82
2023/10/30 08:31:34;;;;;;;10.52;2.10;;;13.60;99.90;;;13.37;75.61;99090.06;5029492;28;20505;-83
2023/10/30 08:34:01;;;;;;;6.90;2.10;;;13.60;99.90;;;13.44;75.52;99099.72;5029130;28;20046;-83
2023/10/30 08:36:29;;;;;;;11.52;2.47;;;13.60;99.90;;;13.48;75.52;99096.25;5028661;28;20041;-83
2023/10/30 08:38:58;;;;;;;12.48;1.70;;;13.60;99.90;;;13.53;75.67;99104.31;5030019;28;20050;-83
2023/10/30 08:41:26;;;;;;;9.93;2.50;;;13.70;99.90;;;13.61;76.40;99105.66;5029301;28;20382;-83
2023/10/30 08:43:53;;;;;;;8.60;1.70;;;13.70;99.90;;;13.65;75.79;99104.84;5028590;28;20057;-83
2023/10/30 08:46:21;;;;;;;7.78;1.92;;;13.80;99.90;;;13.70;76.40;99093.34;5028799;28;20077;-83
2023/10/30 08:48:48;;;;;;;6.18;1.77;;;13.90;99.90;;;13.77;75.94;99101.16;5046230;28;20053;-83
2023/10/30 08:51:17;;;;;;;6.50;2.00;;;13.90;99.90;;;13.82;75.86;99096.59;5029852;28;20066;-83
2023/10/30 08:53:46;;;;;;;10.32;2.17;;;14.00;99.90;;;13.84;75.55;99094.44;5030503;28;20052;-83
2023/10/30 08:56:15;;;;;;;10.95;2.20;;;14.10;99.90;;;13.89;75.36;99102.50;5029190;28;20615;-83
2023/10/30 08:58:43;;;;;;;8.75;1.92;;;14.10;99.90;;;13.91;74.76;99086.97;5028160;28;20057;-83
2023/10/30 09:01:10;;;;;;;10.50;2.10;;;14.10;99.90;;;13.96;74.77;99093.38;5028586;28;20042;-83
2023/10/30 09:03:38;;;;;;;7.00;2.17;;;14.20;99.90;;;13.97;74.98;99097.69;5030381;28;20049;-83
2023/10/30 09:06:06;;;;;;;9.07;2.20;;;14.20;99.90;;;13.97;74.35;99103.03;5029831;28;20046;-83
2023/10/30 09:08:37;;;;;;;9.90;2.40;;;14.20;99.90;;;14.00;74.62;99103.28;5029759;28;20042;-83
2023/10/30 09:11:05;;;;;;;7.50;1.92;;;14.20;99.90;;;14.03;75.02;99110.81;5028439;28;20050;-83
2023/10/30 09:13:34;;;;;;;7.05;2.20;;;14.20;99.90;;;14.06;74.85;99101.44;5029064;28;20517;-82
2023/10/30 09:16:04;;;;;;;7.22;1.88;;;14.30;99.90;;;14.07;74.31;99103.06;5029435;28;20056;-82
2023/10/30 09:18:31;;;;;;;7.20;1.85;;;14.30;99.90;;;14.10;74.75;99105.19;5029423;28;20062;-83
2023/10/30 09:20:59;;;;;;;9.50;2.10;;;14.30;99.90;;;14.08;74.68;99102.78;5026477;28;20062;-83
2023/10/30 09:23:27;;;;;;;6.43;1.65;;;14.30;99.90;;;14.07;73.67;99100.38;5058250;28;20046;-83
2023/10/30 09:25:55;;;;;;;10.73;1.80;;;14.30;99.90;;;14.07;73.04;99100.38;5041645;28;20046;-83
2023/10/30 09:28:23;;;;;;;6.85;2.03;;;14.30;99.90;;;14.07;73.16;99089.66;5026793;28;20042;-83
2023/10/30 09:30:52;;;;;;;4.45;1.70;;;14.30;99.90;;;14.07;72.56;99103.06;5032687;28;20054;-83
2023/10/30 09:33:20;;;;;;;7.05;1.65;;;14.30;99.90;;;14.08;72.34;99104.66;5025780;28;20056;-83
2023/10/30 09:35:48;;;;;;;5.20;1.40;;;14.30;99.90;;;14.10;72.22;99110.53;5028879;28;20038;-83
2023/10/30 09:38:15;;;;;;;5.75;1.80;;;14.30;99.90;;;14.16;72.79;99090.72;5010773;28;20056;-83
2023/10/30 09:40:44;;;;;;;5.40;1.70;;;14.30;99.90;;;14.15;72.40;99095.28;5027718;28;20038;-83
2023/10/30 09:43:11;;;;;;;5.93;1.98;;;14.30;99.90;;;14.15;71.98;99097.13;5027813;28;20054;-83
2023/10/30 09:45:42;;;;;;;6.53;1.50;;;14.40;99.90;;;14.14;72.43;99088.28;5027747;28;20046;-83
2023/10/30 09:48:11;;;;;;;5.47;1.90;;;14.30;99.90;;;14.16;72.88;99091.53;5027929;28;20038;-83
2023/10/30 09:50:40;;;;;;;6.32;1.60;;;14.40;99.90;;;14.17;73.02;99092.31;5028850;28;20050;-83
2023/10/30 09:53:10;;;;;;;5.50;1.70;;;14.30;99.90;;;14.18;72.89;99096.59;5059193;28;20050;-83
2023/10/30 09:55:38;;;;;;;9.50;2.00;;;14.40;99.90;;;14.22;73.59;99099.56;5029903;28;20070;-83
2023/10/30 09:58:08;;;;;;;11.18;2.00;;;14.30;99.90;;;14.20;72.86;99097.16;5024363;28;20052;-83
2023/10/30 10:00:36;;;;;;;4.75;1.58;;;14.40;99.90;;;14.21;73.12;99098.75;5024299;28;20092;-83
2023/10/30 10:03:06;;;;;;;7.97;2.25;;;14.30;99.90;;;14.24;72.62;99092.03;5039486;28;20054;-83
2023/10/30 10:05:35;;;;;;;6.60;1.65;;;14.40;99.90;;;14.23;72.07;99095.81;5056708;28;20543;-83
2023/10/30 10:08:03;;;;;;;3.80;1.50;;;14.40;99.90;;;14.22;72.54;99095.00;5021540;28;20066;-83
2023/10/30 10:10:50;;;;;;;6.47;1.52;;;14.40;99.90;;;14.26;72.54;99084.56;5028031;28;20042;-83
2023/10/30 10:13:18;;;;;;;8.13;1.90;;;14.40;99.90;;;14.27;71.21;99084.28;5020837;28;20045;-83
2023/10/30 10:15:46;;;;;;;8.57;1.60;;;14.50;99.90;;;14.33;71.74;99096.59;5015738;28;20046;-83
2023/10/30 10:18:25;;;;;;;4.93;1.42;;;14.50;99.90;;;14.39;71.46;99087.47;5039983;28;20053;-83
2023/10/30 10:21:00;;;;;;;5.32;1.50;;;14.60;99.90;;;14.41;71.64;99081.84;5021964;28;20080;-83
2023/10/30 10:23:32;;;;;;;4.88;1.17;;;14.60;99.90;;;14.45;71.31;99079.44;5022465;28;20080;-83
2023/10/30 10:26:03;;;;;;;6.80;1.38;;;14.60;99.90;;;14.43;70.19;99082.38;5024259;28;20042;-82
2023/10/30 10:28:31;;;;;;;4.85;1.30;;;14.60;99.90;;;14.44;70.29;99081.28;5037411;28;20054;-83
2023/10/30 10:31:00;;;;;;;4.50;1.42;;;14.60;99.90;;;14.46;69.95;99065.75;5022414;28;20078;-83
2023/10/30 10:33:30;;;;;;;5.32;1.25;;;14.60;99.90;;;14.47;70.85;99079.97;5022296;28;20077;-83
2023/10/30 10:36:03;;;;;;;8.18;1.73;;;14.60;99.90;;;14.46;70.51;99073.78;5025217;28;20056;-82
2023/10/30 10:38:33;;;;;;;6.05;1.35;;;14.60;99.90;;;14.47;70.38;99077.28;5025242;28;20042;-83
2023/10/30 10:41:01;;;;;;;4.85;1.35;;;14.60;99.90;;;14.48;69.97;99062.81;5024430;28;20046;-83
2023/10/30 10:43:31;;;;;;;4.75;1.35;;;14.60;99.90;;;14.49;70.25;99065.22;5027799;28;20042;-82
2023/10/30 10:46:00;;;;;;;7.32;1.70;;;14.70;99.90;;;14.51;70.55;99064.97;5028593;28;20100;-83
2023/10/30 10:48:28;;;;;;;4.68;1.23;;;14.70;99.90;;;14.48;69.72;99052.88;5027723;28;20069;-83
2023/10/30 10:50:57;;;;;;;6.65;1.30;;;14.70;99.90;;;14.51;69.94;99046.19;5022992;28;20402;-83
2023/10/30 10:53:29;;;;;;;5.68;1.42;;;14.70;99.90;;;14.57;69.84;99045.91;5002370;28;20056;-83
2023/10/30 10:56:04;;;;;;;4.75;1.27;;;14.80;99.90;;;14.58;69.66;99046.69;5022555;28;20413;-83
2023/10/30 10:58:42;;;;;;;5.57;1.48;;;14.80;99.90;;;14.59;69.71;99043.75;5025965;28;20046;-83
2023/10/30 11:01:17;;;;;;;2.83;1.02;;;14.80;99.90;;;14.61;69.21;99028.19;5037310;28;20490;-83
2023/10/30 11:03:48;;;;;;;10.75;1.27;;;14.80;99.90;;;14.62;69.38;99028.97;5024782;28;20044;-83
2023/10/30 11:06:18;;;;;;;3.83;1.08;;;14.80;99.90;;;14.62;69.33;99024.41;5027732;28;20045;-83